createdAt,value
2019-04-20T00:01:48.012Z,12.45
2019-04-20T00:04:24.405Z,12.47
2019-04-20T00:06:51.659Z,12.38
2019-04-20T00:09:24.662Z,12.19
2019-04-20T00:12:02.771Z,12.14
2019-04-20T00:14:26.102Z,12.10
2019-04-20T00:16:53.061Z,12.10
2019-04-20T00:19:31.326Z,12.09
2019-04-20T00:22:02.045Z,12.09
2019-04-20T00:24:51.592Z,12.03
2019-04-20T00:27:37.064Z,12.05
2019-04-20T00:30:03.983Z,12.04
2019-04-20T00:32:37.647Z,12.06
2019-04-20T00:34:53.662Z,12.01
2019-04-20T00:37:23.419Z,12.01
2019-04-20T00:39:53.075Z,12.06
2019-04-20T00:42:31.139Z,11.99
2019-04-20T00:45:02.281Z,11.94
2019-04-20T00:47:38.428Z,11.84
2019-04-20T00:50:05.556Z,11.85
2019-04-20T00:52:44.154Z,11.82
2019-04-20T00:54:58.151Z,11.70
2019-04-20T00:57:36.886Z,11.74
2019-04-20T01:00:20.207Z,11.71
2019-04-20T01:02:40.544Z,11.69
2019-04-20T01:05:18.075Z,11.71
2019-04-20T01:07:49.568Z,11.61
2019-04-20T01:10:15.099Z,11.61
2019-04-20T01:12:45.787Z,11.56
2019-04-20T01:15:24.527Z,11.53
2019-04-20T01:17:46.770Z,11.44
2019-04-20T01:20:16.237Z,11.41
2019-04-20T01:22:53.582Z,11.45
2019-04-20T01:25:24.911Z,11.44
2019-04-20T01:28:17.734Z,11.35
2019-04-20T01:30:28.464Z,11.34
2019-04-20T01:33:06.249Z,11.35
2019-04-20T01:35:40.927Z,11.27
2019-04-20T01:38:12.475Z,11.22
2019-04-20T01:40:23.312Z,11.17
2019-04-20T01:42:53.245Z,11.05
2019-04-20T01:45:29.356Z,11.04
2019-04-20T01:47:56.251Z,11.13
2019-04-20T01:50:28.381Z,11.09
2019-04-20T01:53:08.276Z,11.05
2019-04-20T01:55:57.190Z,11.09
2019-04-20T01:58:37.825Z,11.10
2019-04-20T02:01:00.392Z,10.98
2019-04-20T02:03:40.366Z,10.93
2019-04-20T02:06:18.287Z,10.94
2019-04-20T02:08:46.296Z,10.91
2019-04-20T02:11:21.968Z,10.86
2019-04-20T02:13:53.385Z,10.88
2019-04-20T02:16:27.273Z,10.92
2019-04-20T02:19:08.229Z,10.87
2019-04-20T02:21:38.207Z,10.78
2019-04-20T02:23:57.987Z,10.86
2019-04-20T02:26:23.987Z,10.96
2019-04-20T02:29:20.294Z,10.94
2019-04-20T02:37:24.583Z,10.74
2019-04-20T02:39:55.884Z,10.69
2019-04-20T02:42:22.656Z,10.69
2019-04-20T02:44:59.435Z,10.55
2019-04-20T02:47:30.656Z,10.47
2019-04-20T02:55:04.140Z,10.38
2019-04-20T02:57:32.655Z,10.44
2019-04-20T03:02:18.125Z,10.48
2019-04-20T03:04:40.257Z,10.42
2019-04-20T03:07:15.335Z,10.38
2019-04-20T03:09:50.142Z,10.34
2019-04-20T03:12:29.154Z,10.28
2019-04-20T03:14:52.782Z,10.23
2019-04-20T03:17:29.827Z,10.26
2019-04-20T03:19:53.658Z,10.19
2019-04-20T03:22:46.652Z,10.14
2019-04-20T03:25:07.912Z,10.05
2019-04-20T03:27:30.883Z,10.00
2019-04-20T03:30:28.706Z,9.96
2019-04-20T03:35:35.488Z,9.90
2019-04-20T03:38:01.554Z,9.87
2019-04-20T03:40:09.857Z,9.84
2019-04-20T03:42:25.180Z,9.82
2019-04-20T03:45:00.502Z,9.82
2019-04-20T03:47:36.985Z,9.76
2019-04-20T03:50:19.969Z,9.71
2019-04-20T03:52:57.841Z,9.65
2019-04-20T03:55:34.283Z,9.71
2019-04-20T03:58:10.748Z,9.71
2019-04-20T04:00:50.773Z,9.69
2019-04-20T04:03:47.557Z,9.79
2019-04-20T04:06:05.239Z,9.72
2019-04-20T04:08:32.860Z,9.72
2019-04-20T04:11:15.974Z,9.72
2019-04-20T04:13:27.080Z,9.72
2019-04-20T04:16:02.829Z,9.71
2019-04-20T04:18:34.669Z,9.73
2019-04-20T04:21:03.898Z,9.66
2019-04-20T04:23:44.445Z,9.58
2019-04-20T04:26:17.289Z,9.53
2019-04-20T04:28:47.441Z,9.51
2019-04-20T04:31:24.687Z,9.55
2019-04-20T04:36:21.202Z,9.61
2019-04-20T04:38:57.083Z,9.59
2019-04-20T04:41:26.763Z,9.59
2019-04-20T04:44:01.413Z,9.65
2019-04-20T04:46:10.396Z,9.63
2019-04-20T04:48:43.897Z,9.65
2019-04-20T04:51:19.738Z,9.68
2019-04-20T04:53:52.963Z,9.71
2019-04-20T04:56:18.098Z,9.71
2019-04-20T04:58:44.688Z,9.81
2019-04-20T05:01:20.623Z,9.91
2019-04-20T05:04:12.751Z,9.90
2019-04-20T05:06:31.748Z,9.93
2019-04-20T05:08:54.986Z,9.94
2019-04-20T05:11:21.746Z,9.97
2019-04-20T05:13:58.455Z,9.91
2019-04-20T05:16:41.593Z,9.99
2019-04-20T05:21:53.563Z,9.99
2019-04-20T05:24:25.611Z,10.00
2019-04-20T05:27:07.252Z,9.99
2019-04-20T05:29:23.606Z,10.03
2019-04-20T05:31:51.800Z,10.03
2019-04-20T05:34:40.056Z,10.02
2019-04-20T05:37:17.614Z,10.06
2019-04-20T05:39:38.178Z,10.06
2019-04-20T05:42:16.452Z,10.09
2019-04-20T05:44:45.794Z,10.18
2019-04-20T05:47:19.638Z,10.40
2019-04-20T05:49:45.070Z,10.46
2019-04-20T05:52:31.743Z,10.51
2019-04-20T05:54:51.364Z,10.54
2019-04-20T05:57:25.054Z,10.61
2019-04-20T05:59:55.991Z,10.67
2019-04-20T06:02:22.620Z,10.75
2019-04-20T06:07:26.755Z,10.93
2019-04-20T06:10:02.001Z,10.97
2019-04-20T06:12:32.041Z,11.01
2019-04-20T06:14:55.959Z,10.99
2019-04-20T06:17:42.108Z,11.09
2019-04-20T06:20:16.876Z,11.17
2019-04-20T06:22:43.070Z,11.28
2019-04-20T06:25:31.260Z,11.39
2019-04-20T06:27:47.155Z,11.43
2019-04-20T06:30:11.187Z,11.45
2019-04-20T06:33:55.244Z,11.54
2019-04-20T06:38:58.822Z,11.70
2019-04-20T06:41:30.209Z,11.78
2019-04-20T06:43:48.741Z,11.88
2019-04-20T06:46:15.128Z,11.98
2019-04-20T06:48:52.400Z,12.06
2019-04-20T06:51:22.243Z,12.14
2019-04-20T06:53:51.571Z,12.31
2019-04-20T06:56:29.816Z,12.36
2019-04-20T06:59:06.909Z,12.57
2019-04-20T07:01:42.220Z,12.64
2019-04-20T07:04:21.194Z,12.71
2019-04-20T07:09:38.646Z,12.79
2019-04-20T07:11:39.051Z,12.89
2019-04-20T07:13:54.382Z,12.98
2019-04-20T07:16:49.333Z,13.05
2019-04-20T07:19:20.401Z,13.22
2019-04-20T07:24:41.474Z,13.46
2019-04-20T07:27:06.156Z,13.51
2019-04-20T07:29:47.522Z,13.57
2019-04-20T07:32:07.522Z,13.64
2019-04-20T07:34:50.457Z,13.70
2019-04-20T07:37:43.218Z,13.82
2019-04-20T07:39:48.680Z,13.95
2019-04-20T07:42:24.257Z,14.10
2019-04-20T07:44:56.784Z,14.21
2019-04-20T07:47:32.379Z,14.33
2019-04-20T07:49:52.607Z,14.43
2019-04-20T07:52:02.461Z,14.51
2019-04-20T07:55:12.130Z,14.62
2019-04-20T07:57:21.585Z,14.84
2019-04-20T07:59:53.904Z,14.99
2019-04-20T08:02:40.818Z,15.18
2019-04-20T08:05:09.467Z,15.16
2019-04-20T08:07:36.144Z,15.27
2019-04-20T08:10:00.423Z,15.39
2019-04-20T08:12:54.105Z,15.60
2019-04-20T08:15:32.486Z,15.73
2019-04-20T08:17:56.527Z,15.82
2019-04-20T08:20:20.759Z,15.99
2019-04-20T08:22:53.133Z,16.10
2019-04-20T08:25:14.219Z,16.12
2019-04-20T08:27:44.468Z,16.11
2019-04-20T08:30:33.950Z,16.14
2019-04-20T08:33:04.200Z,16.30
2019-04-20T08:35:46.445Z,16.33
2019-04-20T08:38:36.886Z,16.49
2019-04-20T08:40:43.562Z,16.63
2019-04-20T08:43:36.861Z,16.78
2019-04-20T08:45:49.482Z,16.91
2019-04-20T08:48:20.243Z,17.05
2019-04-20T08:50:44.981Z,17.22
2019-04-20T08:53:27.873Z,17.34
2019-04-20T08:55:45.064Z,17.41
2019-04-20T08:58:00.255Z,17.60
2019-04-20T09:00:35.939Z,17.76
2019-04-20T09:03:09.411Z,17.83
2019-04-20T09:05:42.483Z,17.88
2019-04-20T09:08:14.420Z,18.11
2019-04-20T09:10:48.250Z,18.25
2019-04-20T09:13:15.987Z,18.29
2019-04-20T09:15:36.333Z,18.35
2019-04-20T09:18:20.964Z,18.17
2019-04-20T09:20:48.694Z,18.26
2019-04-20T09:23:27.303Z,18.50
2019-04-20T09:26:07.039Z,18.61
2019-04-20T09:28:32.299Z,18.67
2019-04-20T09:31:18.575Z,18.76
2019-04-20T09:34:02.750Z,19.01
2019-04-20T09:36:30.763Z,19.18
2019-04-20T09:39:16.478Z,19.23
2019-04-20T09:42:00.822Z,19.40
2019-04-20T09:44:30.367Z,19.46
2019-04-20T09:46:59.203Z,19.68
2019-04-20T09:49:40.307Z,19.97
2019-04-20T09:52:13.408Z,20.35
2019-04-20T09:54:48.110Z,20.66
2019-04-20T09:57:22.637Z,20.83
2019-04-20T09:59:50.090Z,20.92
2019-04-20T10:02:13.171Z,21.09
2019-04-20T10:04:33.681Z,21.43
2019-04-20T10:07:11.188Z,21.30
2019-04-20T10:09:38.245Z,21.43
2019-04-20T10:12:05.728Z,22.07
2019-04-20T10:14:35.265Z,22.48
2019-04-20T10:17:05.716Z,22.34
2019-04-20T10:19:38.183Z,22.23
2019-04-20T10:22:06.701Z,22.56
2019-04-20T10:24:36.878Z,22.96
2019-04-20T10:27:06.629Z,23.26
2019-04-20T10:29:35.948Z,23.58
2019-04-20T10:32:07.771Z,24.11
2019-04-20T10:34:36.815Z,24.19
2019-04-20T10:37:09.270Z,23.91
2019-04-20T10:39:40.524Z,23.55
2019-04-20T10:42:10.203Z,23.82
2019-04-20T10:44:40.893Z,24.32
2019-04-20T10:47:11.380Z,25.11
2019-04-20T10:49:41.298Z,25.60
2019-04-20T10:52:11.662Z,25.91
2019-04-20T10:54:42.654Z,25.55
2019-04-20T10:57:13.290Z,25.15
2019-04-20T10:59:43.708Z,25.09
2019-04-20T11:02:13.991Z,24.96
2019-04-20T11:04:44.360Z,24.63
2019-04-20T11:07:14.643Z,24.68
2019-04-20T11:09:44.830Z,25.03
2019-04-20T11:12:14.610Z,25.80
2019-04-20T11:14:45.620Z,26.42
2019-04-20T11:17:16.244Z,27.02
2019-04-20T11:19:45.900Z,26.59
2019-04-20T11:22:16.671Z,26.41
2019-04-20T11:24:46.448Z,26.33
2019-04-20T11:27:16.313Z,26.00
2019-04-20T11:29:46.399Z,25.58
2019-04-20T11:32:15.989Z,25.86
2019-04-20T11:34:45.528Z,26.27
2019-04-20T11:37:15.263Z,26.52
2019-04-20T11:39:45.365Z,26.88
2019-04-20T11:42:14.679Z,27.14
2019-04-20T11:44:44.785Z,27.63
2019-04-20T11:47:14.753Z,28.53
2019-04-20T11:49:45.729Z,28.90
2019-04-20T11:52:18.355Z,28.64
2019-04-20T11:54:46.472Z,28.26
2019-04-20T11:57:15.935Z,28.55
2019-04-20T11:59:45.586Z,29.34
2019-04-20T12:02:30.155Z,29.68
2019-04-20T12:05:12.824Z,30.00
2019-04-20T12:07:35.250Z,30.02
2019-04-20T12:10:13.527Z,29.97
2019-04-20T12:12:42.476Z,30.34
2019-04-20T12:15:08.657Z,30.70
2019-04-20T12:17:39.715Z,30.58
2019-04-20T12:20:10.122Z,30.39
2019-04-20T12:22:40.034Z,30.30
2019-04-20T12:25:10.022Z,31.15
2019-04-20T12:27:41.978Z,31.49
2019-04-20T12:30:12.113Z,32.97
2019-04-20T12:32:45.010Z,35.07
2019-04-20T12:35:14.105Z,37.23
2019-04-20T12:37:45.101Z,39.20
2019-04-20T12:40:14.696Z,39.93
2019-04-20T12:42:44.291Z,40.70
2019-04-20T12:45:15.600Z,41.54
2019-04-20T12:47:46.980Z,41.59
2019-04-20T12:50:17.323Z,42.23
2019-04-20T12:52:48.316Z,42.38
2019-04-20T12:55:18.820Z,42.99
2019-04-20T12:57:48.271Z,41.89
2019-04-20T13:00:17.859Z,41.83
2019-04-20T13:02:47.430Z,42.11
2019-04-20T13:05:17.587Z,43.35
2019-04-20T13:07:51.800Z,44.21
2019-04-20T13:10:18.331Z,44.36
2019-04-20T13:12:56.413Z,44.67
2019-04-20T13:15:42.956Z,45.13
2019-04-20T13:18:14.985Z,44.19
2019-04-20T13:20:45.858Z,42.96
2019-04-20T13:23:15.506Z,43.10
2019-04-20T13:25:44.968Z,43.97
2019-04-20T13:28:14.789Z,44.71
2019-04-20T13:30:44.376Z,45.16
2019-04-20T13:33:14.172Z,45.28
2019-04-20T13:35:44.116Z,45.21
2019-04-20T13:38:14.148Z,44.70
2019-04-20T13:40:44.014Z,43.12
2019-04-20T13:43:13.905Z,42.68
2019-04-20T13:45:44.719Z,42.85
2019-04-20T13:48:15.120Z,42.58
2019-04-20T13:50:46.297Z,42.65
2019-04-20T13:53:15.856Z,42.14
2019-04-20T13:55:47.722Z,42.61
2019-04-20T13:58:35.953Z,42.56
2019-04-20T14:01:23.518Z,43.24
2019-04-20T14:04:00.771Z,43.31
2019-04-20T14:06:30.489Z,44.25
2019-04-20T14:09:01.189Z,44.40
2019-04-20T14:11:31.506Z,44.46
2019-04-20T14:14:04.511Z,44.43
2019-04-20T14:16:32.304Z,44.44
2019-04-20T14:19:03.015Z,45.00
2019-04-20T14:21:32.621Z,44.48
2019-04-20T14:24:04.130Z,41.29
2019-04-20T14:26:36.108Z,41.31
2019-04-20T14:29:05.067Z,41.49
2019-04-20T14:31:35.197Z,41.55
2019-04-20T14:34:04.957Z,41.07
2019-04-20T14:36:34.939Z,40.97
2019-04-20T14:39:07.170Z,41.31
2019-04-20T14:41:36.583Z,40.72
2019-04-20T14:44:05.974Z,39.85
2019-04-20T14:46:35.877Z,39.13
2019-04-20T14:49:06.907Z,38.59
2019-04-20T14:51:37.506Z,38.68
2019-04-20T14:54:07.508Z,38.44
2019-04-20T14:56:37.770Z,37.99
2019-04-20T14:59:09.636Z,37.69
2019-04-20T15:01:41.122Z,37.38
2019-04-20T15:04:16.354Z,37.04
2019-04-20T15:06:42.459Z,36.48
2019-04-20T15:09:12.905Z,35.66
2019-04-20T15:11:44.246Z,35.42
2019-04-20T15:14:14.549Z,35.63
2019-04-20T15:16:44.615Z,35.68
2019-04-20T15:19:15.785Z,35.86
2019-04-20T15:21:47.418Z,34.80
2019-04-20T15:24:17.798Z,33.89
2019-04-20T15:26:48.658Z,32.14
2019-04-20T15:29:18.343Z,31.69
2019-04-20T15:31:48.218Z,32.19
2019-04-20T15:34:17.597Z,31.54
2019-04-20T15:36:47.430Z,30.98
2019-04-20T15:39:17.289Z,31.07
2019-04-20T15:41:47.296Z,31.41
2019-04-20T15:44:17.499Z,31.44
2019-04-20T15:46:47.290Z,30.91
2019-04-20T15:49:17.946Z,30.42
2019-04-20T15:51:47.857Z,30.34
2019-04-20T15:54:17.849Z,30.41
2019-04-20T15:56:56.059Z,30.42
2019-04-20T15:59:18.514Z,30.25
2019-04-20T16:01:49.585Z,29.83
2019-04-20T16:04:39.831Z,29.40
2019-04-20T16:07:08.612Z,29.60
2019-04-20T16:09:38.202Z,29.65
2019-04-20T16:12:08.918Z,29.17
2019-04-20T16:14:39.519Z,29.03
2019-04-20T16:17:12.028Z,28.84
2019-04-20T16:19:49.174Z,28.41
2019-04-20T16:22:12.126Z,27.87
2019-04-20T16:24:46.850Z,27.74
2019-04-20T16:27:27.710Z,27.95
2019-04-20T16:29:57.780Z,27.69
2019-04-20T16:32:27.393Z,27.50
2019-04-20T16:34:56.639Z,27.53
2019-04-20T16:37:26.470Z,27.60
2019-04-20T16:39:56.638Z,27.41
2019-04-20T16:42:26.682Z,27.20
2019-04-20T16:44:56.964Z,27.12
2019-04-20T16:47:27.845Z,26.97
2019-04-20T16:49:57.604Z,26.69
2019-04-20T16:52:27.066Z,25.99
2019-04-20T16:54:57.688Z,25.00
2019-04-20T16:57:27.821Z,24.46
2019-04-20T16:59:59.295Z,24.31
2019-04-20T17:02:29.937Z,24.24
2019-04-20T17:05:00.853Z,24.08
2019-04-20T17:07:35.108Z,23.94
2019-04-20T17:10:11.910Z,23.87
2019-04-20T17:12:41.940Z,23.77
2019-04-20T17:15:11.861Z,23.57
2019-04-20T17:17:41.480Z,23.12
2019-04-20T17:20:11.432Z,22.69
2019-04-20T17:22:42.218Z,22.35
2019-04-20T17:25:12.280Z,21.99
2019-04-20T17:27:53.050Z,21.75
2019-04-20T17:30:26.695Z,21.41
2019-04-20T17:33:06.523Z,21.24
2019-04-20T17:35:50.637Z,21.22
2019-04-20T17:38:07.028Z,21.15
2019-04-20T17:40:59.098Z,21.07
2019-04-20T17:43:17.894Z,21.07
2019-04-20T17:45:49.684Z,21.04
2019-04-20T17:48:25.546Z,20.89
2019-04-20T17:51:05.162Z,20.78
2019-04-20T17:53:24.013Z,20.69
2019-04-20T17:55:53.486Z,20.62
2019-04-20T17:58:27.926Z,20.54
2019-04-20T18:01:00.300Z,20.45
2019-04-20T18:04:03.232Z,20.33
2019-04-20T18:06:19.906Z,20.26
2019-04-20T18:08:50.584Z,20.09
2019-04-20T18:11:11.563Z,20.06
2019-04-20T18:13:37.723Z,19.98
2019-04-20T18:16:32.065Z,19.94
2019-04-20T18:19:03.465Z,19.85
2019-04-20T18:21:26.806Z,19.73
2019-04-20T18:23:56.309Z,19.64
2019-04-20T18:26:45.106Z,19.57
2019-04-20T18:29:16.705Z,19.46
2019-04-20T18:31:45.348Z,19.37
2019-04-20T18:34:20.831Z,19.38
2019-04-20T18:36:49.150Z,19.32
2019-04-20T18:39:27.694Z,19.28
2019-04-20T18:41:55.461Z,19.15
2019-04-20T18:44:27.697Z,19.01
2019-04-20T18:47:13.873Z,18.79
2019-04-20T18:49:35.078Z,18.67
2019-04-20T18:51:55.644Z,18.51
2019-04-20T18:54:28.796Z,18.42
2019-04-20T18:56:58.008Z,18.29
2019-04-20T18:59:35.361Z,18.18
2019-04-20T19:01:59.247Z,18.04
2019-04-20T19:04:30.051Z,17.95
2019-04-20T19:07:19.756Z,18.07
2019-04-20T19:09:55.188Z,17.93
2019-04-20T19:12:28.491Z,17.85
2019-04-20T19:15:30.421Z,17.72
2019-04-20T19:17:57.000Z,17.59
2019-04-20T19:20:18.377Z,17.45
2019-04-20T19:22:48.224Z,17.28
2019-04-20T19:25:25.700Z,17.11
2019-04-20T19:27:53.869Z,16.94
2019-04-20T19:30:34.479Z,16.83
2019-04-20T19:33:08.980Z,16.72
2019-04-20T19:35:33.651Z,16.55
2019-04-20T19:38:06.565Z,16.36
2019-04-20T19:40:40.709Z,16.21
2019-04-20T19:43:08.556Z,16.14
2019-04-20T19:45:53.346Z,16.07
2019-04-20T19:48:15.457Z,16.00
2019-04-20T19:50:57.633Z,15.92
2019-04-20T19:53:26.315Z,15.88
2019-04-20T19:55:51.537Z,15.88
2019-04-20T19:58:18.903Z,15.88
2019-04-20T20:00:52.123Z,15.85
2019-04-20T20:03:21.962Z,15.78
2019-04-20T20:05:52.887Z,15.73
2019-04-20T20:08:25.911Z,15.66
2019-04-20T20:10:56.349Z,15.71
2019-04-20T20:13:36.112Z,15.65
2019-04-20T20:16:02.376Z,15.61
2019-04-20T20:18:39.295Z,15.52
2019-04-20T20:21:11.082Z,15.45
2019-04-20T20:23:30.120Z,15.35
2019-04-20T20:26:02.449Z,15.30
2019-04-20T20:28:40.361Z,15.27
2019-04-20T20:31:12.834Z,15.20
2019-04-20T20:33:49.835Z,15.11
2019-04-20T20:36:11.721Z,15.09
2019-04-20T20:38:42.549Z,14.99
2019-04-20T20:41:16.654Z,14.96
2019-04-20T20:43:51.215Z,14.90
2019-04-20T20:46:21.605Z,14.80
2019-04-20T20:49:04.732Z,14.73
2019-04-20T20:51:35.697Z,14.61
2019-04-20T20:53:54.374Z,14.55
2019-04-20T20:56:22.596Z,14.48
2019-04-20T20:58:58.009Z,14.39
2019-04-20T21:01:23.708Z,14.35
2019-04-20T21:03:52.157Z,14.30
2019-04-20T21:06:20.288Z,14.26
2019-04-20T21:08:54.207Z,14.23
2019-04-20T21:11:27.126Z,14.19
2019-04-20T21:13:54.043Z,14.11
2019-04-20T21:16:28.823Z,14.04
2019-04-20T21:19:16.000Z,14.02
2019-04-20T21:21:38.489Z,13.99
2019-04-20T21:24:07.503Z,13.99
2019-04-20T21:26:37.585Z,13.93
2019-04-20T21:29:03.939Z,13.86
2019-04-20T21:31:34.414Z,13.86
2019-04-20T21:34:10.108Z,13.79
2019-04-20T21:36:35.223Z,13.75
2019-04-20T21:39:09.927Z,13.67
2019-04-20T21:41:41.713Z,13.66
2019-04-20T21:44:18.465Z,13.62
2019-04-20T21:46:46.760Z,13.56
2019-04-20T21:49:29.112Z,13.53
2019-04-20T21:51:50.223Z,13.50
2019-04-20T21:54:14.286Z,13.46
2019-04-20T21:56:49.882Z,13.51
2019-04-20T21:59:24.261Z,13.47
2019-04-20T22:01:56.346Z,13.46
2019-04-20T22:04:19.863Z,13.44
2019-04-20T22:06:48.438Z,13.42
2019-04-20T22:09:18.211Z,13.38
2019-04-20T22:11:49.492Z,13.34
2019-04-20T22:14:22.903Z,13.34
2019-04-20T22:16:53.807Z,13.28
2019-04-20T22:19:34.259Z,13.24
2019-04-20T22:22:02.533Z,13.20
2019-04-20T22:24:39.959Z,13.15
2019-04-20T22:27:07.794Z,13.12
2019-04-20T22:29:26.301Z,13.04
2019-04-20T22:32:02.778Z,13.00
2019-04-20T22:34:28.419Z,12.98
2019-04-20T22:36:58.203Z,12.98
2019-04-20T22:39:39.814Z,12.92
2019-04-20T22:42:09.045Z,12.85
2019-04-20T22:44:36.290Z,12.79
2019-04-20T22:47:13.902Z,12.67
2019-04-20T22:49:50.175Z,12.66
2019-04-20T22:52:26.945Z,12.64
2019-04-20T22:54:55.073Z,12.61
2019-04-20T22:57:27.764Z,12.57
2019-04-20T22:59:52.342Z,12.53
2019-04-20T23:02:13.554Z,12.55
2019-04-20T23:04:44.594Z,12.52
2019-04-20T23:07:14.748Z,12.47
2019-04-20T23:09:50.854Z,12.41
2019-04-20T23:12:19.619Z,12.35
2019-04-20T23:14:46.633Z,12.32
2019-04-20T23:17:23.456Z,12.24
2019-04-20T23:19:52.130Z,12.25
2019-04-20T23:22:19.186Z,12.21
2019-04-20T23:24:49.217Z,12.16
2019-04-20T23:27:24.462Z,12.10
2019-04-20T23:29:51.049Z,12.08
2019-04-20T23:32:21.427Z,12.05
2019-04-20T23:35:16.360Z,11.96
2019-04-20T23:37:43.771Z,11.87
2019-04-20T23:40:16.589Z,11.84
2019-04-20T23:42:47.644Z,11.83
2019-04-20T23:45:28.249Z,11.80
2019-04-20T23:47:57.701Z,11.76
2019-04-20T23:50:40.837Z,11.77
2019-04-20T23:53:14.074Z,11.77
2019-04-20T23:55:25.810Z,11.77
2019-04-20T23:57:59.552Z,11.85
